sensor_id;sensor_type;location;lat;lon;timestamp;pressure;altitude;pressure_sealevel;temperature;humidity
41624;BME280;27319;50.306;18.926;2023-08-31T00:02:47;97430.00;;;15.50;100.00
41624;BME280;27319;50.306;18.926;2023-08-31T00:06:47;97438.63;;;15.58;100.00
41624;BME280;27319;50.306;18.926;2023-08-31T00:10:57;97433.91;;;15.54;100.00
41624;BME280;27319;50.306;18.926;2023-08-31T00:14:55;97429.81;;;15.45;100.00
41624;BME280;27319;50.306;18.926;2023-08-31T00:18:56;97430.91;;;15.37;100.00
41624;BME280;27319;50.306;18.926;2023-08-31T00:22:56;97427.13;;;15.38;100.00
41624;BME280;27319;50.306;18.926;2023-08-31T00:26:57;97431.47;;;15.46;100.00
41624;BME280;27319;50.306;18.926;2023-08-31T00:30:59;97428.94;;;15.51;100.00
41624;BME280;27319;50.306;18.926;2023-08-31T00:34:58;97433.00;;;15.29;100.00
41624;BME280;27319;50.306;18.926;2023-08-31T00:39:02;97435.22;;;15.45;100.00
41624;BME280;27319;50.306;18.926;2023-08-31T00:43:03;97442.66;;;15.49;100.00
41624;BME280;27319;50.306;18.926;2023-08-31T00:47:03;97439.38;;;15.47;100.00
41624;BME280;27319;50.306;18.926;2023-08-31T00:50:45;97436.91;;;15.39;100.00
41624;BME280;27319;50.306;18.926;2023-08-31T00:53:51;97432.38;;;15.33;100.00
41624;BME280;27319;50.306;18.926;2023-08-31T00:57:14;97438.63;;;15.34;100.00
41624;BME280;27319;50.306;18.926;2023-08-31T01:01:25;97432.38;;;15.33;100.00
41624;BME280;27319;50.306;18.926;2023-08-31T01:05:04;97430.38;;;15.16;100.00
41624;BME280;27319;50.306;18.926;2023-08-31T01:13:10;97428.94;;;15.13;100.00
41624;BME280;27319;50.306;18.926;2023-08-31T01:17:09;97438.31;;;15.04;100.00
41624;BME280;27319;50.306;18.926;2023-08-31T01:24:50;97432.50;;;15.07;100.00
41624;BME280;27319;50.306;18.926;2023-08-31T01:28:51;97438.53;;;15.03;100.00
41624;BME280;27319;50.306;18.926;2023-08-31T01:32:47;97419.84;;;15.01;100.00
41624;BME280;27319;50.306;18.926;2023-08-31T01:35:50;97428.19;;;14.93;100.00
41624;BME280;27319;50.306;18.926;2023-08-31T01:39:17;97435.28;;;14.88;100.00
41624;BME280;27319;50.306;18.926;2023-08-31T01:43:15;97430.22;;;14.98;100.00
41624;BME280;27319;50.306;18.926;2023-08-31T01:47:28;97428.38;;;14.98;100.00
41624;BME280;27319;50.306;18.926;2023-08-31T01:51:28;97431.25;;;15.10;100.00
41624;BME280;27319;50.306;18.926;2023-08-31T01:55:29;97425.84;;;15.03;100.00
41624;BME280;27319;50.306;18.926;2023-08-31T01:59:30;97429.22;;;14.99;100.00
41624;BME280;27319;50.306;18.926;2023-08-31T02:03:30;97428.00;;;14.88;100.00
41624;BME280;27319;50.306;18.926;2023-08-31T02:06:51;97427.53;;;14.98;100.00
41624;BME280;27319;50.306;18.926;2023-08-31T02:10:12;97429.41;;;15.04;100.00
41624;BME280;27319;50.306;18.926;2023-08-31T02:14:13;97437.06;;;15.07;100.00
41624;BME280;27319;50.306;18.926;2023-08-31T02:18:13;97442.91;;;15.04;100.00
41624;BME280;27319;50.306;18.926;2023-08-31T02:22:14;97445.78;;;15.09;100.00
41624;BME280;27319;50.306;18.926;2023-08-31T02:25:55;97442.91;;;15.04;100.00
41624;BME280;27319;50.306;18.926;2023-08-31T02:28:56;97447.66;;;15.08;100.00
41624;BME280;27319;50.306;18.926;2023-08-31T02:31:58;97451.63;;;15.06;100.00
41624;BME280;27319;50.306;18.926;2023-08-31T02:34:58;97449.72;;;15.06;100.00
41624;BME280;27319;50.306;18.926;2023-08-31T02:38:19;97455.00;;;14.95;100.00
41624;BME280;27319;50.306;18.926;2023-08-31T02:42:00;97451.69;;;14.93;100.00
41624;BME280;27319;50.306;18.926;2023-08-31T02:45:21;97448.72;;;15.01;100.00
41624;BME280;27319;50.306;18.926;2023-08-31T02:49:22;97451.03;;;15.04;100.00
41624;BME280;27319;50.306;18.926;2023-08-31T02:53:23;97453.75;;;14.97;100.00
41624;BME280;27319;50.306;18.926;2023-08-31T02:57:04;97455.13;;;15.06;100.00
41624;BME280;27319;50.306;18.926;2023-08-31T03:00:05;97454.06;;;15.14;100.00
41624;BME280;27319;50.306;18.926;2023-08-31T03:03:11;97454.31;;;15.06;100.00
41624;BME280;27319;50.306;18.926;2023-08-31T03:06:32;97452.44;;;15.06;100.00
41624;BME280;27319;50.306;18.926;2023-08-31T03:10:32;97449.13;;;15.04;100.00
41624;BME280;27319;50.306;18.926;2023-08-31T03:14:33;97451.03;;;15.04;100.00
41624;BME280;27319;50.306;18.926;2023-08-31T03:18:33;97448.31;;;15.04;100.00
41624;BME280;27319;50.306;18.926;2023-08-31T03:22:34;97454.75;;;15.03;100.00
41624;BME280;27319;50.306;18.926;2023-08-31T03:26:35;97465.41;;;14.91;100.00
41624;BME280;27319;50.306;18.926;2023-08-31T03:30:36;97466.59;;;15.02;100.00
41624;BME280;27319;50.306;18.926;2023-08-31T03:34:20;97472.84;;;15.02;100.00
41624;BME280;27319;50.306;18.926;2023-08-31T03:37:41;97470.53;;;15.06;100.00
41624;BME280;27319;50.306;18.926;2023-08-31T03:41:22;97477.59;;;15.13;100.00
41624;BME280;27319;50.306;18.926;2023-08-31T03:44:22;97484.91;;;15.00;100.00
41624;BME280;27319;50.306;18.926;2023-08-31T03:47:44;97491.13;;;15.00;100.00
41624;BME280;27319;50.306;18.926;2023-08-31T03:51:45;97489.00;;;15.09;100.00
41624;BME280;27319;50.306;18.926;2023-08-31T03:55:46;97505.88;;;15.04;100.00
41624;BME280;27319;50.306;18.926;2023-08-31T03:59:46;97496.53;;;15.00;100.00
41624;BME280;27319;50.306;18.926;2023-08-31T04:03:28;97503.66;;;14.88;100.00
41624;BME280;27319;50.306;18.926;2023-08-31T04:06:51;97501.53;;;14.97;100.00
41624;BME280;27319;50.306;18.926;2023-08-31T04:10:12;97508.84;;;14.90;100.00
41624;BME280;27319;50.306;18.926;2023-08-31T04:14:13;97498.81;;;15.03;100.00
41624;BME280;27319;50.306;18.926;2023-08-31T04:18:13;97505.47;;;15.01;100.00
41624;BME280;27319;50.306;18.926;2023-08-31T04:21:55;97508.84;;;14.90;100.00
41624;BME280;27319;50.306;18.926;2023-08-31T04:25:15;97497.38;;;14.94;100.00
41624;BME280;27319;50.306;18.926;2023-08-31T04:29:16;97497.38;;;15.01;100.00
41624;BME280;27319;50.306;18.926;2023-08-31T04:33:17;97505.88;;;15.04;100.00
41624;BME280;27319;50.306;18.926;2023-08-31T04:37:18;97500.81;;;15.21;100.00
41624;BME280;27319;50.306;18.926;2023-08-31T04:40:59;97495.84;;;15.18;100.00
41624;BME280;27319;50.306;18.926;2023-08-31T04:44:20;97499.97;;;15.33;100.00
41624;BME280;27319;50.306;18.926;2023-08-31T04:48:01;97506.00;;;15.35;100.00
41624;BME280;27319;50.306;18.926;2023-08-31T04:51:28;97508.06;;;15.40;100.00
41624;BME280;27319;50.306;18.926;2023-08-31T04:55:28;97508.69;;;15.29;100.00
41624;BME280;27319;50.306;18.926;2023-08-31T04:59:29;97509.91;;;15.39;100.00
41624;BME280;27319;50.306;18.926;2023-08-31T05:03:10;97510.31;;;15.43;100.00
41624;BME280;27319;50.306;18.926;2023-08-31T05:06:10;97516.75;;;15.48;100.00
41624;BME280;27319;50.306;18.926;2023-08-31T05:09:31;97511.81;;;15.39;100.00
41624;BME280;27319;50.306;18.926;2023-08-31T05:13:33;97513.28;;;15.35;100.00
41624;BME280;27319;50.306;18.926;2023-08-31T05:17:13;97528.44;;;15.29;100.00
41624;BME280;27319;50.306;18.926;2023-08-31T05:20:14;97514.31;;;15.34;100.00
41624;BME280;27319;50.306;18.926;2023-08-31T05:23:35;97534.25;;;15.39;100.00
41624;BME280;27319;50.306;18.926;2023-08-31T05:27:36;97534.84;;;15.48;100.00
41624;BME280;27319;50.306;18.926;2023-08-31T05:31:36;97529.25;;;15.43;100.00
41624;BME280;27319;50.306;18.926;2023-08-31T05:35:37;97543.63;;;15.37;100.00
41624;BME280;27319;50.306;18.926;2023-08-31T05:39:18;97546.69;;;15.47;100.00
41624;BME280;27319;50.306;18.926;2023-08-31T05:42:41;97555.03;;;15.45;100.00
41624;BME280;27319;50.306;18.926;2023-08-31T05:46:42;97557.50;;;15.53;100.00
41624;BME280;27319;50.306;18.926;2023-08-31T05:50:43;97551.25;;;15.53;100.00
41624;BME280;27319;50.306;18.926;2023-08-31T05:54:27;97558.69;;;15.64;100.00
41624;BME280;27319;50.306;18.926;2023-08-31T05:57:30;97559.91;;;15.68;100.00
41624;BME280;27319;50.306;18.926;2023-08-31T06:00:31;97561.19;;;15.59;100.00
41624;BME280;27319;50.306;18.926;2023-08-31T06:03:32;97558.72;;;15.57;100.00
41624;BME280;27319;50.306;18.926;2023-08-31T06:06:33;97557.66;;;15.58;100.00
41624;BME280;27319;50.306;18.926;2023-08-31T06:09:34;97563.13;;;15.52;100.00
41624;BME280;27319;50.306;18.926;2023-08-31T06:12:35;97559.94;;;15.61;100.00
41624;BME280;27319;50.306;18.926;2023-08-31T06:15:56;97566.53;;;15.72;100.00
41624;BME280;27319;50.306;18.926;2023-08-31T06:18:58;97573.19;;;15.76;100.00
41624;BME280;27319;50.306;18.926;2023-08-31T06:21:59;97566.53;;;15.72;100.00
41624;BME280;27319;50.306;18.926;2023-08-31T06:25:20;97575.63;;;15.84;100.00
41624;BME280;27319;50.306;18.926;2023-08-31T06:28:57;97577.81;;;15.69;100.00
41624;BME280;27319;50.306;18.926;2023-08-31T06:32:17;97585.47;;;15.72;100.00
41624;BME280;27319;50.306;18.926;2023-08-31T06:35:38;97590.69;;;15.67;100.00
41624;BME280;27319;50.306;18.926;2023-08-31T06:38:39;97585.94;;;15.62;100.00
41624;BME280;27319;50.306;18.926;2023-08-31T06:41:40;97580.94;;;15.66;100.00
41624;BME280;27319;50.306;18.926;2023-08-31T06:44:45;97573.47;;;15.61;100.00
41624;BME280;27319;50.306;18.926;2023-08-31T06:48:06;97580.31;;;15.70;100.00
41624;BME280;27319;50.306;18.926;2023-08-31T06:52:07;97582.72;;;15.85;100.00
41624;BME280;27319;50.306;18.926;2023-08-31T06:56:08;97583.81;;;16.08;100.00
41624;BME280;27319;50.306;18.926;2023-08-31T07:00:08;97586.94;;;16.43;100.00
41624;BME280;27319;50.306;18.926;2023-08-31T07:03:51;97588.34;;;16.70;100.00
41624;BME280;27319;50.306;18.926;2023-08-31T07:06:52;97590.56;;;16.79;99.15
41624;BME280;27319;50.306;18.926;2023-08-31T07:09:53;97588.25;;;16.83;97.88
41624;BME280;27319;50.306;18.926;2023-08-31T07:12:55;97595.50;;;17.07;98.93
41624;BME280;27319;50.306;18.926;2023-08-31T07:15:56;97601.44;;;16.97;96.61
41624;BME280;27319;50.306;18.926;2023-08-31T07:18:56;97606.34;;;17.07;98.02
41624;BME280;27319;50.306;18.926;2023-08-31T07:21:57;97615.16;;;17.02;98.49
41624;BME280;27319;50.306;18.926;2023-08-31T07:25:19;97618.13;;;17.19;97.33
41624;BME280;27319;50.306;18.926;2023-08-31T07:29:01;97616.47;;;17.18;96.75
41624;BME280;27319;50.306;18.926;2023-08-31T07:32:04;97625.34;;;17.25;97.13
41624;BME280;27319;50.306;18.926;2023-08-31T07:35:25;97620.78;;;17.25;95.01
41624;BME280;27319;50.306;18.926;2023-08-31T07:39:26;97627.00;;;17.08;94.65
41624;BME280;27319;50.306;18.926;2023-08-31T07:43:27;97630.91;;;17.12;94.11
41624;BME280;27319;50.306;18.926;2023-08-31T07:46:48;97623.69;;;17.24;94.40
41624;BME280;27319;50.306;18.926;2023-08-31T07:50:48;97623.91;;;17.47;94.25
41624;BME280;27319;50.306;18.926;2023-08-31T07:54:49;97630.66;;;17.74;93.38
41624;BME280;27319;50.306;18.926;2023-08-31T07:58:50;97636.28;;;18.20;90.90
41624;BME280;27319;50.306;18.926;2023-08-31T08:02:31;97644.22;;;18.21;89.40
41624;BME280;27319;50.306;18.926;2023-08-31T08:05:32;97635.81;;;17.93;89.40
41624;BME280;27319;50.306;18.926;2023-08-31T08:08:53;97642.84;;;18.01;88.55
41624;BME280;27319;50.306;18.926;2023-08-31T08:12:59;97647.91;;;17.97;87.49
41624;BME280;27319;50.306;18.926;2023-08-31T08:17:00;97653.97;;;18.11;87.47
41624;BME280;27319;50.306;18.926;2023-08-31T08:21:01;97672.53;;;18.14;86.49
41624;BME280;27319;50.306;18.926;2023-08-31T08:24:42;97666.03;;;18.33;86.38
41624;BME280;27319;50.306;18.926;2023-08-31T08:27:43;97673.94;;;18.16;85.57
41624;BME280;27319;50.306;18.926;2023-08-31T08:31:04;97664.38;;;18.14;86.36
41624;BME280;27319;50.306;18.926;2023-08-31T08:34:45;97664.28;;;18.38;86.13
41624;BME280;27319;50.306;18.926;2023-08-31T08:38:05;97670.69;;;18.44;85.03
41624;BME280;27319;50.306;18.926;2023-08-31T08:42:06;97671.47;;;18.74;84.76
41624;BME280;27319;50.306;18.926;2023-08-31T08:46:07;97676.34;;;18.95;84.45
41624;BME280;27319;50.306;18.926;2023-08-31T08:50:08;97671.69;;;18.61;79.88
41624;BME280;27319;50.306;18.926;2023-08-31T08:54:08;97668.19;;;18.95;81.36
41624;BME280;27319;50.306;18.926;2023-08-31T08:58:09;97662.31;;;19.67;80.17
41624;BME280;27319;50.306;18.926;2023-08-31T09:02:10;97664.00;;;19.45;80.69
41624;BME280;27319;50.306;18.926;2023-08-31T09:05:51;97675.03;;;19.38;79.17
41624;BME280;27319;50.306;18.926;2023-08-31T09:08:55;97678.22;;;19.47;77.66
41624;BME280;27319;50.306;18.926;2023-08-31T09:12:07;97688.34;;;19.74;77.55
41624;BME280;27319;50.306;18.926;2023-08-31T09:15:09;97686.31;;;19.81;75.40
41624;BME280;27319;50.306;18.926;2023-08-31T09:18:28;97678.66;;;19.67;74.70
41624;BME280;27319;50.306;18.926;2023-08-31T09:22:10;97691.41;;;19.78;75.95
41624;BME280;27319;50.306;18.926;2023-08-31T09:25:11;97695.56;;;19.80;75.93
41624;BME280;27319;50.306;18.926;2023-08-31T09:28:12;97695.22;;;19.77;76.09
41624;BME280;27319;50.306;18.926;2023-08-31T09:31:14;97697.81;;;19.72;72.87
41624;BME280;27319;50.306;18.926;2023-08-31T09:34:16;97697.59;;;19.62;75.09
41624;BME280;27319;50.306;18.926;2023-08-31T09:37:17;97694.72;;;19.91;75.05
41624;BME280;27319;50.306;18.926;2023-08-31T09:40:18;97695.13;;;20.23;75.63
41624;BME280;27319;50.306;18.926;2023-08-31T09:43:20;97691.44;;;20.29;73.64
41624;BME280;27319;50.306;18.926;2023-08-31T09:46:22;97704.75;;;20.14;72.59
41624;BME280;27319;50.306;18.926;2023-08-31T09:49:24;97703.50;;;20.33;75.83
41624;BME280;27319;50.306;18.926;2023-08-31T09:52:26;97705.44;;;20.21;76.28
41624;BME280;27319;50.306;18.926;2023-08-31T09:55:27;97701.38;;;20.63;76.65
41624;BME280;27319;50.306;18.926;2023-08-31T09:58:30;97706.84;;;20.79;77.50
41624;BME280;27319;50.306;18.926;2023-08-31T10:01:51;97714.25;;;20.51;76.28
41624;BME280;27319;50.306;18.926;2023-08-31T10:05:32;97710.06;;;21.04;69.76
41624;BME280;27319;50.306;18.926;2023-08-31T10:08:36;97710.41;;;21.24;68.85
41624;BME280;27319;50.306;18.926;2023-08-31T10:11:38;97714.09;;;21.02;67.79
41624;BME280;27319;50.306;18.926;2023-08-31T10:14:40;97711.72;;;21.22;64.11
41624;BME280;27319;50.306;18.926;2023-08-31T10:17:41;97699.72;;;21.56;66.43
41624;BME280;27319;50.306;18.926;2023-08-31T10:20:43;97707.16;;;20.66;65.80
41624;BME280;27319;50.306;18.926;2023-08-31T10:23:45;97708.16;;;20.77;68.00
41624;BME280;27319;50.306;18.926;2023-08-31T10:26:46;97704.38;;;20.78;70.42
41624;BME280;27319;50.306;18.926;2023-08-31T10:29:47;97711.41;;;21.18;67.45
41624;BME280;27319;50.306;18.926;2023-08-31T10:36:17;97704.06;;;21.90;63.45
41624;BME280;27319;50.306;18.926;2023-08-31T10:39:18;97710.63;;;21.89;63.69
41624;BME280;27319;50.306;18.926;2023-08-31T10:42:23;97710.88;;;22.09;61.85
41624;BME280;27319;50.306;18.926;2023-08-31T10:45:24;97725.75;;;22.61;57.83
41624;BME280;27319;50.306;18.926;2023-08-31T10:48:25;97720.84;;;22.63;57.42
41624;BME280;27319;50.306;18.926;2023-08-31T10:51:32;97720.56;;;23.39;56.29
41624;BME280;27319;50.306;18.926;2023-08-31T10:54:33;97724.06;;;23.08;60.30
41624;BME280;27319;50.306;18.926;2023-08-31T10:57:57;97723.56;;;23.11;58.60
41624;BME280;27319;50.306;18.926;2023-08-31T11:02:26;97725.75;;;23.14;57.44
41624;BME280;27319;50.306;18.926;2023-08-31T11:05:54;97724.34;;;23.74;62.49
41624;BME280;27319;50.306;18.926;2023-08-31T11:08:55;97720.22;;;23.72;56.97
41624;BME280;27319;50.306;18.926;2023-08-31T11:11:56;97719.69;;;23.70;58.74
41624;BME280;27319;50.306;18.926;2023-08-31T11:14:57;97712.50;;;23.27;58.74
41624;BME280;27319;50.306;18.926;2023-08-31T11:17:58;97714.22;;;22.80;59.76
41624;BME280;27319;50.306;18.926;2023-08-31T11:20:59;97710.00;;;23.26;59.21
41624;BME280;27319;50.306;18.926;2023-08-31T11:24:00;97710.09;;;23.36;58.96
41624;BME280;27319;50.306;18.926;2023-08-31T11:27:01;97706.59;;;24.23;59.81
41624;BME280;27319;50.306;18.926;2023-08-31T11:30:30;97712.78;;;24.04;61.02
41624;BME280;27319;50.306;18.926;2023-08-31T11:33:34;97711.25;;;23.76;63.27
41624;BME280;27319;50.306;18.926;2023-08-31T11:36:57;97698.72;;;22.91;62.13
41624;BME280;27319;50.306;18.926;2023-08-31T11:40:41;97707.47;;;23.87;57.66
41624;BME280;27319;50.306;18.926;2023-08-31T11:43:42;97709.38;;;24.38;58.06
41624;BME280;27319;50.306;18.926;2023-08-31T11:46:46;97700.91;;;24.45;58.79
41624;BME280;27319;50.306;18.926;2023-08-31T11:49:51;97705.31;;;24.46;56.49
41624;BME280;27319;50.306;18.926;2023-08-31T11:53:12;97697.78;;;24.83;56.28
41624;BME280;27319;50.306;18.926;2023-08-31T11:57:12;97698.41;;;25.30;58.75
41624;BME280;27319;50.306;18.926;2023-08-31T12:01:22;97701.84;;;24.70;56.97
41624;BME280;27319;50.306;18.926;2023-08-31T12:05:23;97704.34;;;24.15;60.77
41624;BME280;27319;50.306;18.926;2023-08-31T12:09:23;97706.97;;;23.90;59.83
41624;BME280;27319;50.306;18.926;2023-08-31T12:12:30;97697.72;;;23.02;60.88
41624;BME280;27319;50.306;18.926;2023-08-31T12:15:53;97705.69;;;22.50;59.79
41624;BME280;27319;50.306;18.926;2023-08-31T12:20:03;97696.19;;;21.93;63.45
41624;BME280;27319;50.306;18.926;2023-08-31T12:24:04;97719.31;;;21.86;63.41
41624;BME280;27319;50.306;18.926;2023-08-31T12:28:04;97717.34;;;20.99;64.17
41624;BME280;27319;50.306;18.926;2023-08-31T12:32:08;97740.69;;;21.23;64.96
41624;BME280;27319;50.306;18.926;2023-08-31T12:36:08;97735.22;;;21.56;63.18
41624;BME280;27319;50.306;18.926;2023-08-31T12:40:09;97747.09;;;21.99;61.55
41624;BME280;27319;50.306;18.926;2023-08-31T12:43:30;97750.75;;;22.26;61.15
41624;BME280;27319;50.306;18.926;2023-08-31T12:46:32;97752.25;;;21.96;64.42
41624;BME280;27319;50.306;18.926;2023-08-31T12:49:33;97753.75;;;21.87;62.82
41624;BME280;27319;50.306;18.926;2023-08-31T12:52:34;97758.47;;;21.42;64.15
41624;BME280;27319;50.306;18.926;2023-08-31T12:55:35;97765.00;;;21.41;63.86
41624;BME280;27319;50.306;18.926;2023-08-31T12:58:37;97763.03;;;21.20;63.38
41624;BME280;27319;50.306;18.926;2023-08-31T13:01:58;97781.16;;;21.26;63.14
41624;BME280;27319;50.306;18.926;2023-08-31T13:05:41;97782.63;;;20.89;65.01
41624;BME280;27319;50.306;18.926;2023-08-31T13:08:43;97785.06;;;20.74;65.16
41624;BME280;27319;50.306;18.926;2023-08-31T13:11:45;97777.09;;;20.33;65.21
41624;BME280;27319;50.306;18.926;2023-08-31T13:14:46;97784.50;;;19.86;66.51
41624;BME280;27319;50.306;18.926;2023-08-31T13:17:47;97791.25;;;19.20;69.07
41624;BME280;27319;50.306;18.926;2023-08-31T13:21:10;97787.50;;;19.21;71.11
41624;BME280;27319;50.306;18.926;2023-08-31T13:25:11;97785.19;;;19.36;72.55
41624;BME280;27319;50.306;18.926;2023-08-31T13:29:13;97788.03;;;19.11;73.24
41624;BME280;27319;50.306;18.926;2023-08-31T13:33:13;97787.84;;;18.95;72.98
41624;BME280;27319;50.306;18.926;2023-08-31T13:36:54;97795.25;;;18.76;72.51
41624;BME280;27319;50.306;18.926;2023-08-31T13:39:55;97787.84;;;18.95;72.00
41624;BME280;27319;50.306;18.926;2023-08-31T13:42:58;97785.28;;;19.00;74.02
41624;BME280;27319;50.306;18.926;2023-08-31T13:46:19;97786.19;;;18.94;71.95
41624;BME280;27319;50.306;18.926;2023-08-31T13:49:20;97797.22;;;18.99;73.21
41624;BME280;27319;50.306;18.926;2023-08-31T13:52:21;97794.84;;;18.91;72.87
41624;BME280;27319;50.306;18.926;2023-08-31T13:55:22;97791.84;;;18.81;72.05
41624;BME280;27319;50.306;18.926;2023-08-31T13:58:24;97792.47;;;18.65;72.63
41624;BME280;27319;50.306;18.926;2023-08-31T14:01:26;97796.06;;;18.77;70.86
41624;BME280;27319;50.306;18.926;2023-08-31T14:04:27;97790.34;;;18.96;72.87
41624;BME280;27319;50.306;18.926;2023-08-31T14:07:28;97790.25;;;19.03;71.50
41624;BME280;27319;50.306;18.926;2023-08-31T14:10:29;97799.09;;;19.28;69.41
41624;BME280;27319;50.306;18.926;2023-08-31T14:13:32;97795.94;;;19.31;70.41
41624;BME280;27319;50.306;18.926;2023-08-31T14:17:32;97796.19;;;19.52;69.98
41624;BME280;27319;50.306;18.926;2023-08-31T14:21:36;97810.91;;;20.09;67.91
41624;BME280;27319;50.306;18.926;2023-08-31T14:25:37;97811.38;;;21.08;64.68
41624;BME280;27319;50.306;18.926;2023-08-31T14:29:37;97803.03;;;21.75;58.98
41624;BME280;27319;50.306;18.926;2023-08-31T14:33:38;97801.59;;;22.06;60.76
41624;BME280;27319;50.306;18.926;2023-08-31T14:37:39;97810.78;;;22.38;58.30
41624;BME280;27319;50.306;18.926;2023-08-31T14:41:20;97808.41;;;21.87;57.96
41624;BME280;27319;50.306;18.926;2023-08-31T14:44:40;97807.72;;;21.96;59.89
41624;BME280;27319;50.306;18.926;2023-08-31T14:48:41;97819.88;;;21.56;56.56
41624;BME280;27319;50.306;18.926;2023-08-31T14:52:42;97819.97;;;21.61;57.05
41624;BME280;27319;50.306;18.926;2023-08-31T14:56:43;97819.06;;;21.11;60.00
41624;BME280;27319;50.306;18.926;2023-08-31T15:00:44;97822.22;;;21.03;60.46
41624;BME280;27319;50.306;18.926;2023-08-31T15:04:24;97820.66;;;20.56;62.42
41624;BME280;27319;50.306;18.926;2023-08-31T15:07:25;97821.16;;;20.41;60.43
41624;BME280;27319;50.306;18.926;2023-08-31T15:10:30;97824.25;;;20.45;61.91
41624;BME280;27319;50.306;18.926;2023-08-31T15:13:50;97826.38;;;20.43;60.97
41624;BME280;27319;50.306;18.926;2023-08-31T15:17:51;97824.66;;;20.14;62.96
41624;BME280;27319;50.306;18.926;2023-08-31T15:21:48;97830.09;;;20.14;63.02
41624;BME280;27319;50.306;18.926;2023-08-31T15:24:51;97824.16;;;20.28;63.31
41624;BME280;27319;50.306;18.926;2023-08-31T15:28:12;97836.72;;;20.29;64.36
41624;BME280;27319;50.306;18.926;2023-08-31T15:31:14;97834.00;;;20.18;66.76
41624;BME280;27319;50.306;18.926;2023-08-31T15:34:15;97841.78;;;20.03;65.07
41624;BME280;27319;50.306;18.926;2023-08-31T15:37:16;97834.44;;;19.69;66.15
41624;BME280;27319;50.306;18.926;2023-08-31T15:40:17;97829.13;;;19.62;67.83
41624;BME280;27319;50.306;18.926;2023-08-31T15:43:18;97843.25;;;19.94;67.65
41624;BME280;27319;50.306;18.926;2023-08-31T15:46:39;97835.69;;;19.43;68.24
41624;BME280;27319;50.306;18.926;2023-08-31T15:50:40;97843.75;;;19.38;69.07
41624;BME280;27319;50.306;18.926;2023-08-31T15:54:41;97853.81;;;19.38;69.26
41624;BME280;27319;50.306;18.926;2023-08-31T15:58:42;97847.34;;;19.50;69.64
41624;BME280;27319;50.306;18.926;2023-08-31T16:02:42;97850.31;;;19.72;70.57
41624;BME280;27319;50.306;18.926;2023-08-31T16:06:23;97848.75;;;19.53;71.33
41624;BME280;27319;50.306;18.926;2023-08-31T16:09:24;97849.25;;;19.61;72.56
41624;BME280;27319;50.306;18.926;2023-08-31T16:12:25;97860.22;;;19.55;74.23
41624;BME280;27319;50.306;18.926;2023-08-31T16:15:27;97854.59;;;19.27;72.11
41624;BME280;27319;50.306;18.926;2023-08-31T16:18:28;97855.66;;;19.26;75.15
41624;BME280;27319;50.306;18.926;2023-08-31T16:21:29;97851.03;;;18.97;81.98
41624;BME280;27319;50.306;18.926;2023-08-31T16:24:45;97853.13;;;18.65;91.49
41624;BME280;27319;50.306;18.926;2023-08-31T16:27:47;97843.56;;;18.45;95.41
41624;BME280;27319;50.306;18.926;2023-08-31T16:30:48;97847.78;;;18.41;95.83
41624;BME280;27319;50.306;18.926;2023-08-31T16:33:49;97855.38;;;18.68;91.45
41624;BME280;27319;50.306;18.926;2023-08-31T16:36:50;97852.34;;;18.76;96.24
41624;BME280;27319;50.306;18.926;2023-08-31T16:39:51;97853.34;;;18.46;100.00
41624;BME280;27319;50.306;18.926;2023-08-31T16:42:54;97852.63;;;18.39;97.69
41624;BME280;27319;50.306;18.926;2023-08-31T16:46:00;97856.66;;;18.30;96.51
41624;BME280;27319;50.306;18.926;2023-08-31T16:49:01;97852.31;;;18.22;96.65
41624;BME280;27319;50.306;18.926;2023-08-31T16:52:03;97851.06;;;18.25;95.94
41624;BME280;27319;50.306;18.926;2023-08-31T16:55:04;97850.28;;;18.18;95.52
41624;BME280;27319;50.306;18.926;2023-08-31T16:58:06;97848.97;;;18.27;93.80
41624;BME280;27319;50.306;18.926;2023-08-31T17:01:06;97848.72;;;18.28;95.08
41624;BME280;27319;50.306;18.926;2023-08-31T17:04:08;97863.13;;;18.29;93.21
41624;BME280;27319;50.306;18.926;2023-08-31T17:07:09;97860.25;;;18.24;92.45
41624;BME280;27319;50.306;18.926;2023-08-31T17:10:10;97864.25;;;18.21;94.59
41624;BME280;27319;50.306;18.926;2023-08-31T17:13:11;97866.59;;;18.18;94.15
41624;BME280;27319;50.306;18.926;2023-08-31T17:16:12;97867.50;;;18.12;93.00
41624;BME280;27319;50.306;18.926;2023-08-31T17:19:13;97868.06;;;17.96;93.57
41624;BME280;27319;50.306;18.926;2023-08-31T17:22:17;97876.19;;;17.78;94.96
41624;BME280;27319;50.306;18.926;2023-08-31T17:25:17;97876.50;;;17.88;93.26
41624;BME280;27319;50.306;18.926;2023-08-31T17:28:18;97876.19;;;17.78;96.42
41624;BME280;27319;50.306;18.926;2023-08-31T17:31:19;97880.06;;;17.64;95.85
41624;BME280;27319;50.306;18.926;2023-08-31T17:34:20;97887.56;;;17.62;94.50
41624;BME280;27319;50.306;18.926;2023-08-31T17:37:21;97886.41;;;17.51;94.64
41624;BME280;27319;50.306;18.926;2023-08-31T17:40:22;97890.28;;;17.31;96.61
41624;BME280;27319;50.306;18.926;2023-08-31T17:43:23;97895.28;;;17.34;95.30
41624;BME280;27319;50.306;18.926;2023-08-31T17:46:24;97897.88;;;17.16;95.97
41624;BME280;27319;50.306;18.926;2023-08-31T17:49:25;97895.63;;;17.13;96.45
41624;BME280;27319;50.306;18.926;2023-08-31T17:52:26;97901.34;;;16.92;96.89
41624;BME280;27319;50.306;18.926;2023-08-31T17:55:27;97907.34;;;17.07;95.13
41624;BME280;27319;50.306;18.926;2023-08-31T17:58:28;97912.56;;;17.02;95.58
41624;BME280;27319;50.306;18.926;2023-08-31T18:01:28;97912.59;;;16.95;96.08
41624;BME280;27319;50.306;18.926;2023-08-31T18:04:29;97922.66;;;16.88;96.20
41624;BME280;27319;50.306;18.926;2023-08-31T18:07:30;97917.28;;;16.75;96.63